Terminal Aerodrome Forecast
Issued by NWS Mt. Holly, NJ

Home | Current Version | Previous Version | Text Only | Print | Product List | Glossary On
Versions: 1 2 3 4 5 6 7 8 9 10 11 12 13 14 15 16 17
000
FTUS41 KPHI 270558
TAFILG
TAF
KILG 270558Z 2706/2806 21007KT P6SM OVC028
     FM270800 22007KT P6SM OVC018
      TEMPO 2709/2711 4SM -SHRA BKN009
     FM271100 25005KT P6SM VCSH SCT006 BKN012
     FM271400 29007KT P6SM SCT020 BKN100
     FM271700 24006KT P6SM BKN250
     FM272000 19005KT P6SM SKC=

USA.gov is the U.S. government's official web portal to all federal, state and local government web resources and services.